Aérodrome :
LOGIN :

S'inscrire | Disclaimer

   EN    FR    IT 

 










Légende :    VFR   VFR Marginal   IFR   IFR Intensif   IFR Très Intensif
Visi : 
Plafond : 
>= 8 km
>= 3000ft
5 à 8 km
1000 à 3000 ft
1500m à 5 km
500 à 1000 ft
800 à 1500m
200 à 500 ft
< 800m
< 200 ft
Symboles :   Orages  Brouillard  Fortes neiges  Fortes précipitations  Vent > 20 kt
SIGMETs :   Divers  Orages  Givrage  Turbulence  Onde Orograph.  Cendres Volcan.






- Altitude de l'aérodrome : 776 ft
- Code IATA : RMS


ETAR - Ramstein Air Base

DERNIER METAR :
  • 301821Z AUTO 24009KT 9999 FEW090 18/16 A2990 RMK AO2 RAE21 PRESRR SLP122 $

METARs EXPIRÉS :
  • 301756Z AUTO 25009KT 9999 -RA FEW018 FEW033 SCT100 19/17 A2987 RMK AO2 LTG DSNT E AND S RAE14RAB48 SLP112 P0002 60009 T01880168 10311 20188 52029 $
  • 301748Z AUTO 25012KT 9999 -RA FEW018 FEW033 20/17 A2987 RMK AO2 LTG DSNT E AND S RAE14RAB48 SLP112 $
  • 301714Z AUTO 22005KT 9999 FEW008 FEW070 SCT095 20/18 A2984 RMK AO2 LTG DSNT S RAE14 SLP102 $
  • 301656Z AUTO 28003KT 9999 VCTS -RA SCT031 BKN095 20/15 A2983 RMK AO2 PK WND 23029/28 RAB11E14RAB20 TSB20E49 SLP100 P0007 T01970147 $
  • 301645Z 00000KT 8000 -TSRA FEW002 BKN031 20/12 A2984 RMK AO2A VIS 4400 RWY27 RAB11E14RAB20 TSB20 SLP103 $
  • 301620Z AUTO 22007KT 9999 -RA CLR 27/11 A2983 RMK AO2 LTG DSNT S-W RAB11E14RAB20 PRESRR SLP097 $
  • 301611Z AUTO 18004KT 9999 -RA FEW130 28/08 A2981 RMK AO2 LTG DSNT SW RAB11 SLP090 $
  • 301556Z AUTO 18005KT 9999 FEW130 28/08 A2980 RMK AO2 LTG DSNT SW SLP086 T02830075 $

TAF TAF ETAR
Valide du 30 à 18h jusqu'au 02 à 00h UTC


301800Z 3018/0124 25009KT 8000 -RA BKN017 QNH2982INS
TEMPO 3018/3024 25010G20KT 9000 -TSRA BKN017CB
BECMG 0100/0101 27006KT 8000 BR OVC011 QNH3003INS
BECMG 0106/0107 26009KT 9999 NSW SCT025 BKN040 QNH3009INS
BECMG 0120/0121 VRB06KT 9999 FEW040 QNH3019INS TX20/0118Z TN14/0104Z



MET'MAP, la Météo Aéronautique d'un coup d'oeil ! - Copyright ORBIFLY Décembre 2007 - Disclaimer

ORBIFLY MET'MAP TEAM :

Programmation & Développement : Alexandra Zaïnal
Sur une idée originale de : Baudouin d'Aumeries
Soutien technique & logistique : Manuel Goepfert
Assistance : Marc-Olivier Méhu




SOURCES & CREDITS :

   NOAA